sensor_id;sensor_type;location;lat;lon;timestamp;pressure;altitude;pressure_sealevel;temperature;humidity
57452;BME280;66031;51.224;-0.164;2023-01-28T00:01:28;102318.33;;;15.99;33.01
57452;BME280;66031;51.224;-0.164;2023-01-28T00:03:53;102319.10;;;16.25;32.90
57452;BME280;66031;51.224;-0.164;2023-01-28T00:06:19;102316.71;;;16.14;33.03
57452;BME280;66031;51.224;-0.164;2023-01-28T00:08:45;102311.51;;;16.35;33.03
57452;BME280;66031;51.224;-0.164;2023-01-28T00:11:11;102311.01;;;16.25;33.10
57452;BME280;66031;51.224;-0.164;2023-01-28T00:13:36;102318.18;;;15.99;33.15
57452;BME280;66031;51.224;-0.164;2023-01-28T00:16:04;102310.42;;;15.96;33.09
57452;BME280;66031;51.224;-0.164;2023-01-28T00:18:28;102313.77;;;15.98;33.08
57452;BME280;66031;51.224;-0.164;2023-01-28T00:20:57;102313.08;;;16.23;33.03
57452;BME280;66031;51.224;-0.164;2023-01-28T00:23:18;102314.13;;;16.14;33.10
57452;BME280;66031;51.224;-0.164;2023-01-28T00:25:44;102317.59;;;16.09;33.16
57452;BME280;66031;51.224;-0.164;2023-01-28T00:28:10;102321.18;;;15.84;33.14
57452;BME280;66031;51.224;-0.164;2023-01-28T00:30:35;102322.44;;;16.10;33.06
57452;BME280;66031;51.224;-0.164;2023-01-28T00:33:01;102319.19;;;16.06;33.09
57452;BME280;66031;51.224;-0.164;2023-01-28T00:35:26;102315.56;;;15.78;33.12
57452;BME280;66031;51.224;-0.164;2023-01-28T00:37:51;102313.74;;;15.77;33.09
57452;BME280;66031;51.224;-0.164;2023-01-28T00:40:17;102314.79;;;15.73;33.12
57452;BME280;66031;51.224;-0.164;2023-01-28T00:42:42;102307.29;;;15.92;33.15
57452;BME280;66031;51.224;-0.164;2023-01-28T00:45:08;102307.33;;;15.92;33.11
57452;BME280;66031;51.224;-0.164;2023-01-28T00:47:33;102304.36;;;15.88;33.12
57452;BME280;66031;51.224;-0.164;2023-01-28T00:49:59;102307.53;;;15.94;33.03
57452;BME280;66031;51.224;-0.164;2023-01-28T00:52:24;102301.50;;;15.87;33.08
57452;BME280;66031;51.224;-0.164;2023-01-28T00:54:49;102308.20;;;15.85;33.08
57452;BME280;66031;51.224;-0.164;2023-01-28T00:57:15;102306.70;;;15.79;33.11
57452;BME280;66031;51.224;-0.164;2023-01-28T00:59:41;102312.74;;;15.72;33.15
57452;BME280;66031;51.224;-0.164;2023-01-28T01:02:06;102301.43;;;15.27;33.10
57452;BME280;66031;51.224;-0.164;2023-01-28T01:04:32;102303.67;;;15.53;33.05
57452;BME280;66031;51.224;-0.164;2023-01-28T01:06:58;102301.80;;;15.56;32.99
57452;BME280;66031;51.224;-0.164;2023-01-28T01:09:24;102295.14;;;15.76;32.97
57452;BME280;66031;51.224;-0.164;2023-01-28T01:11:49;102293.81;;;15.48;32.99
57452;BME280;66031;51.224;-0.164;2023-01-28T01:14:14;102302.07;;;15.67;33.02
57452;BME280;66031;51.224;-0.164;2023-01-28T01:16:40;102304.79;;;15.40;33.03
57452;BME280;66031;51.224;-0.164;2023-01-28T01:19:05;102306.63;;;15.56;32.84
57452;BME280;66031;51.224;-0.164;2023-01-28T01:21:31;102309.87;;;15.44;32.92
57452;BME280;66031;51.224;-0.164;2023-01-28T01:23:56;102308.56;;;15.62;32.96
57452;BME280;66031;51.224;-0.164;2023-01-28T01:26:22;102313.70;;;15.57;33.02
57452;BME280;66031;51.224;-0.164;2023-01-28T01:28:47;102311.73;;;15.58;32.99
57452;BME280;66031;51.224;-0.164;2023-01-28T01:31:14;102313.61;;;15.57;32.96
57452;BME280;66031;51.224;-0.164;2023-01-28T01:33:38;102308.41;;;15.55;32.97
57452;BME280;66031;51.224;-0.164;2023-01-28T01:36:04;102306.37;;;15.53;32.98
57452;BME280;66031;51.224;-0.164;2023-01-28T01:38:29;102311.02;;;15.48;32.99
57452;BME280;66031;51.224;-0.164;2023-01-28T01:40:56;102307.83;;;15.93;33.00
57452;BME280;66031;51.224;-0.164;2023-01-28T01:43:21;102309.28;;;15.39;33.04
57452;BME280;66031;51.224;-0.164;2023-01-28T01:45:47;102312.36;;;15.40;33.00
57452;BME280;66031;51.224;-0.164;2023-01-28T01:48:16;102313.48;;;15.36;33.00
57452;BME280;66031;51.224;-0.164;2023-01-28T01:50:39;102308.30;;;15.31;33.04
57452;BME280;66031;51.224;-0.164;2023-01-28T01:53:04;102306.04;;;15.35;33.00
57452;BME280;66031;51.224;-0.164;2023-01-28T01:55:28;102302.04;;;15.34;32.95
57452;BME280;66031;51.224;-0.164;2023-01-28T01:57:54;102310.71;;;15.35;32.92
57452;BME280;66031;51.224;-0.164;2023-01-28T02:00:18;102312.41;;;15.02;33.00
57452;BME280;66031;51.224;-0.164;2023-01-28T02:02:46;102309.88;;;15.22;33.01
57452;BME280;66031;51.224;-0.164;2023-01-28T02:05:11;102310.28;;;15.25;32.95
57452;BME280;66031;51.224;-0.164;2023-01-28T02:07:34;102309.96;;;15.01;32.92
57452;BME280;66031;51.224;-0.164;2023-01-28T02:09:59;102307.78;;;15.23;32.92
57452;BME280;66031;51.224;-0.164;2023-01-28T02:12:28;102312.75;;;15.24;32.91
57452;BME280;66031;51.224;-0.164;2023-01-28T02:14:53;102314.44;;;15.15;32.99
57452;BME280;66031;51.224;-0.164;2023-01-28T02:17:16;102315.66;;;15.11;33.02
57452;BME280;66031;51.224;-0.164;2023-01-28T02:19:45;102315.88;;;15.14;32.94
57452;BME280;66031;51.224;-0.164;2023-01-28T02:22:17;102317.07;;;15.58;32.96
57452;BME280;66031;51.224;-0.164;2023-01-28T02:27:12;102318.73;;;15.05;32.99
57452;BME280;66031;51.224;-0.164;2023-01-28T02:29:26;102322.90;;;15.08;32.92
57452;BME280;66031;51.224;-0.164;2023-01-28T02:31:52;102325.99;;;15.03;32.94
57452;BME280;66031;51.224;-0.164;2023-01-28T02:34:18;102330.12;;;14.98;33.01
57452;BME280;66031;51.224;-0.164;2023-01-28T02:36:43;102328.37;;;15.01;32.94
57452;BME280;66031;51.224;-0.164;2023-01-28T02:39:08;102334.29;;;15.02;32.90
57452;BME280;66031;51.224;-0.164;2023-01-28T02:41:33;102334.57;;;15.00;32.90
57452;BME280;66031;51.224;-0.164;2023-01-28T02:43:55;102333.29;;;15.40;32.96
57452;BME280;66031;51.224;-0.164;2023-01-28T02:48:46;102331.09;;;14.89;32.96
57452;BME280;66031;51.224;-0.164;2023-01-28T02:51:18;102332.37;;;14.83;33.00
57452;BME280;66031;51.224;-0.164;2023-01-28T02:53:42;102329.50;;;14.85;32.95
57452;BME280;66031;51.224;-0.164;2023-01-28T02:56:09;102328.13;;;15.33;32.92
57452;BME280;66031;51.224;-0.164;2023-01-28T02:58:34;102329.48;;;14.79;32.96
57452;BME280;66031;51.224;-0.164;2023-01-28T03:01:00;102332.41;;;15.22;33.01
57452;BME280;66031;51.224;-0.164;2023-01-28T03:03:25;102333.28;;;15.25;32.96
57452;BME280;66031;51.224;-0.164;2023-01-28T03:05:49;102331.99;;;14.97;32.97
57452;BME280;66031;51.224;-0.164;2023-01-28T03:08:10;102333.96;;;14.84;32.82
57452;BME280;66031;51.224;-0.164;2023-01-28T03:10:36;102330.88;;;15.03;32.85
57452;BME280;66031;51.224;-0.164;2023-01-28T03:13:01;102331.86;;;14.82;32.80
57452;BME280;66031;51.224;-0.164;2023-01-28T03:15:30;102335.58;;;15.20;32.88
57452;BME280;66031;51.224;-0.164;2023-01-28T03:17:56;102341.32;;;14.95;32.90
57452;BME280;66031;51.224;-0.164;2023-01-28T03:20:18;102345.48;;;14.69;32.89
57452;BME280;66031;51.224;-0.164;2023-01-28T03:22:45;102341.74;;;14.87;32.94
57452;BME280;66031;51.224;-0.164;2023-01-28T03:25:10;102342.22;;;14.57;32.98
57452;BME280;66031;51.224;-0.164;2023-01-28T03:27:39;102344.30;;;15.05;32.98
57452;BME280;66031;51.224;-0.164;2023-01-28T03:30:02;102349.09;;;14.81;32.95
57452;BME280;66031;51.224;-0.164;2023-01-28T03:32:25;102350.24;;;14.80;32.94
57452;BME280;66031;51.224;-0.164;2023-01-28T03:34:50;102349.92;;;15.03;32.94
57452;BME280;66031;51.224;-0.164;2023-01-28T03:37:16;102343.04;;;14.51;32.95
57452;BME280;66031;51.224;-0.164;2023-01-28T03:39:40;102339.91;;;14.48;32.95
57452;BME280;66031;51.224;-0.164;2023-01-28T03:42:08;102340.60;;;14.45;32.97
57452;BME280;66031;51.224;-0.164;2023-01-28T03:44:32;102341.59;;;14.68;32.98
57452;BME280;66031;51.224;-0.164;2023-01-28T03:46:57;102339.42;;;14.60;33.06
57452;BME280;66031;51.224;-0.164;2023-01-28T03:49:22;102340.15;;;14.87;32.99
57452;BME280;66031;51.224;-0.164;2023-01-28T03:51:48;102340.61;;;14.62;32.97
57452;BME280;66031;51.224;-0.164;2023-01-28T03:54:13;102342.01;;;14.58;33.01
57452;BME280;66031;51.224;-0.164;2023-01-28T03:56:38;102344.98;;;14.78;33.02
57452;BME280;66031;51.224;-0.164;2023-01-28T03:59:04;102346.67;;;14.80;32.97
57452;BME280;66031;51.224;-0.164;2023-01-28T04:01:29;102348.18;;;14.33;32.95
57452;BME280;66031;51.224;-0.164;2023-01-28T04:03:55;102348.25;;;14.30;32.94
57452;BME280;66031;51.224;-0.164;2023-01-28T04:06:20;102353.13;;;14.81;32.90
57452;BME280;66031;51.224;-0.164;2023-01-28T04:08:45;102352.79;;;14.77;32.92
57452;BME280;66031;51.224;-0.164;2023-01-28T04:11:11;102355.62;;;14.74;32.93
57452;BME280;66031;51.224;-0.164;2023-01-28T04:13:36;102357.97;;;14.72;32.93
57452;BME280;66031;51.224;-0.164;2023-01-28T04:16:02;102358.25;;;14.48;32.92
57452;BME280;66031;51.224;-0.164;2023-01-28T04:18:27;102361.19;;;14.52;32.85
57452;BME280;66031;51.224;-0.164;2023-01-28T04:20:53;102356.23;;;14.27;32.83
57452;BME280;66031;51.224;-0.164;2023-01-28T04:23:18;102359.57;;;14.73;32.84
57452;BME280;66031;51.224;-0.164;2023-01-28T04:25:43;102362.74;;;14.41;32.90
57452;BME280;66031;51.224;-0.164;2023-01-28T04:28:09;102366.85;;;14.63;32.91
57452;BME280;66031;51.224;-0.164;2023-01-28T04:30:34;102370.96;;;14.72;32.77
57452;BME280;66031;51.224;-0.164;2023-01-28T04:33:00;102370.20;;;14.42;32.83
57452;BME280;66031;51.224;-0.164;2023-01-28T04:35:25;102367.67;;;14.65;32.83
57452;BME280;66031;51.224;-0.164;2023-01-28T04:37:50;102360.49;;;14.43;32.78
57452;BME280;66031;51.224;-0.164;2023-01-28T04:40:16;102357.93;;;14.56;32.87
57452;BME280;66031;51.224;-0.164;2023-01-28T04:42:41;102359.03;;;14.30;32.88
57452;BME280;66031;51.224;-0.164;2023-01-28T04:45:08;102363.40;;;14.31;32.86
57452;BME280;66031;51.224;-0.164;2023-01-28T04:47:33;102368.09;;;14.26;32.90
57452;BME280;66031;51.224;-0.164;2023-01-28T04:49:58;102367.37;;;14.47;32.90
57452;BME280;66031;51.224;-0.164;2023-01-28T04:52:23;102364.31;;;14.22;32.90
57452;BME280;66031;51.224;-0.164;2023-01-28T04:54:48;102360.02;;;14.50;32.84
57452;BME280;66031;51.224;-0.164;2023-01-28T04:57:14;102366.42;;;14.21;32.88
57452;BME280;66031;51.224;-0.164;2023-01-28T04:59:39;102369.69;;;14.41;32.90
57452;BME280;66031;51.224;-0.164;2023-01-28T05:02:05;102362.85;;;14.15;32.92
57452;BME280;66031;51.224;-0.164;2023-01-28T05:04:30;102360.27;;;14.33;32.95
57452;BME280;66031;51.224;-0.164;2023-01-28T05:06:56;102358.38;;;14.36;32.90
57452;BME280;66031;51.224;-0.164;2023-01-28T05:09:22;102350.40;;;14.09;32.90
57452;BME280;66031;51.224;-0.164;2023-01-28T05:11:46;102350.03;;;14.33;32.88
57452;BME280;66031;51.224;-0.164;2023-01-28T05:14:12;102348.57;;;14.33;32.86
57452;BME280;66031;51.224;-0.164;2023-01-28T05:16:38;102349.43;;;14.55;32.87
57452;BME280;66031;51.224;-0.164;2023-01-28T05:19:03;102351.87;;;14.37;32.79
57452;BME280;66031;51.224;-0.164;2023-01-28T05:21:28;102345.87;;;14.34;32.79
57452;BME280;66031;51.224;-0.164;2023-01-28T05:23:53;102343.71;;;14.27;32.85
57452;BME280;66031;51.224;-0.164;2023-01-28T05:26:19;102338.46;;;14.27;32.84
57452;BME280;66031;51.224;-0.164;2023-01-28T05:28:45;102344.00;;;14.04;32.81
57452;BME280;66031;51.224;-0.164;2023-01-28T05:31:10;102343.39;;;14.06;32.75
57452;BME280;66031;51.224;-0.164;2023-01-28T05:33:36;102345.59;;;14.26;32.79
57452;BME280;66031;51.224;-0.164;2023-01-28T05:36:01;102351.37;;;14.26;32.79
57452;BME280;66031;51.224;-0.164;2023-01-28T05:38:26;102350.37;;;14.21;32.81
57452;BME280;66031;51.224;-0.164;2023-01-28T05:40:51;102356.27;;;14.19;32.84
57452;BME280;66031;51.224;-0.164;2023-01-28T05:43:17;102359.69;;;14.18;32.84
57452;BME280;66031;51.224;-0.164;2023-01-28T05:45:42;102358.49;;;14.16;32.83
57452;BME280;66031;51.224;-0.164;2023-01-28T05:48:08;102359.47;;;13.89;32.85
57452;BME280;66031;51.224;-0.164;2023-01-28T05:50:33;102361.99;;;14.14;32.82
57452;BME280;66031;51.224;-0.164;2023-01-28T05:52:59;102358.97;;;14.37;32.81
57452;BME280;66031;51.224;-0.164;2023-01-28T05:55:24;102365.61;;;14.11;32.81
57452;BME280;66031;51.224;-0.164;2023-01-28T05:57:49;102361.17;;;14.04;32.87
57452;BME280;66031;51.224;-0.164;2023-01-28T06:00:16;102354.91;;;14.05;32.84
57452;BME280;66031;51.224;-0.164;2023-01-28T06:02:40;102354.51;;;14.27;32.85
57452;BME280;66031;51.224;-0.164;2023-01-28T06:05:07;102357.74;;;14.17;32.68
57452;BME280;66031;51.224;-0.164;2023-01-28T06:07:31;102353.71;;;14.14;32.68
57452;BME280;66031;51.224;-0.164;2023-01-28T06:09:57;102355.71;;;14.08;32.72
57452;BME280;66031;51.224;-0.164;2023-01-28T06:12:22;102363.72;;;14.02;32.77
57452;BME280;66031;51.224;-0.164;2023-01-28T06:14:47;102369.27;;;13.96;32.83
57452;BME280;66031;51.224;-0.164;2023-01-28T06:17:13;102363.66;;;13.97;32.80
57452;BME280;66031;51.224;-0.164;2023-01-28T06:19:38;102365.68;;;14.07;32.67
57452;BME280;66031;51.224;-0.164;2023-01-28T06:22:04;102370.27;;;14.00;32.71
57452;BME280;66031;51.224;-0.164;2023-01-28T06:24:29;102373.76;;;13.97;32.75
57452;BME280;66031;51.224;-0.164;2023-01-28T06:26:55;102373.52;;;14.27;32.66
57452;BME280;66031;51.224;-0.164;2023-01-28T06:29:20;102372.89;;;14.23;32.68
57452;BME280;66031;51.224;-0.164;2023-01-28T06:31:45;102370.99;;;14.12;32.52
57452;BME280;66031;51.224;-0.164;2023-01-28T06:34:11;102371.30;;;14.44;32.18
57452;BME280;66031;51.224;-0.164;2023-01-28T06:36:36;102375.35;;;14.76;31.88
57452;BME280;66031;51.224;-0.164;2023-01-28T06:39:02;102373.56;;;15.00;31.70
57452;BME280;66031;51.224;-0.164;2023-01-28T06:41:27;102373.98;;;15.18;31.55
57452;BME280;66031;51.224;-0.164;2023-01-28T06:43:53;102372.19;;;15.34;31.32
57452;BME280;66031;51.224;-0.164;2023-01-28T06:46:18;102371.10;;;15.55;31.16
57452;BME280;66031;51.224;-0.164;2023-01-28T06:48:43;102376.19;;;15.40;31.29
57452;BME280;66031;51.224;-0.164;2023-01-28T06:51:09;102378.49;;;15.77;31.07
57452;BME280;66031;51.224;-0.164;2023-01-28T06:53:34;102371.21;;;15.42;31.09
57452;BME280;66031;51.224;-0.164;2023-01-28T06:56:00;102375.74;;;16.09;31.01
57452;BME280;66031;51.224;-0.164;2023-01-28T06:58:25;102378.67;;;15.74;31.04
57452;BME280;66031;51.224;-0.164;2023-01-28T07:00:52;102389.05;;;15.91;30.90
57452;BME280;66031;51.224;-0.164;2023-01-28T07:03:16;102393.58;;;16.07;30.77
57452;BME280;66031;51.224;-0.164;2023-01-28T07:05:41;102393.76;;;16.16;30.76
57452;BME280;66031;51.224;-0.164;2023-01-28T07:08:07;102395.86;;;16.19;30.79
57452;BME280;66031;51.224;-0.164;2023-01-28T07:10:33;102390.92;;;16.28;30.70
57452;BME280;66031;51.224;-0.164;2023-01-28T07:12:58;102395.70;;;16.43;30.57
57452;BME280;66031;51.224;-0.164;2023-01-28T07:15:23;102390.03;;;16.59;30.45
57452;BME280;66031;51.224;-0.164;2023-01-28T07:17:48;102388.73;;;16.17;30.39
57452;BME280;66031;51.224;-0.164;2023-01-28T07:20:14;102389.27;;;16.27;30.29
57452;BME280;66031;51.224;-0.164;2023-01-28T07:22:40;102390.99;;;16.54;30.33
57452;BME280;66031;51.224;-0.164;2023-01-28T07:25:05;102395.89;;;16.62;30.35
57452;BME280;66031;51.224;-0.164;2023-01-28T07:27:29;102392.79;;;16.75;30.31
57452;BME280;66031;51.224;-0.164;2023-01-28T07:29:55;102391.72;;;16.79;30.12
57452;BME280;66031;51.224;-0.164;2023-01-28T07:32:20;102398.06;;;16.87;30.49
57452;BME280;66031;51.224;-0.164;2023-01-28T07:34:46;102396.91;;;17.06;30.41
57452;BME280;66031;51.224;-0.164;2023-01-28T07:37:11;102405.50;;;17.13;30.23
57452;BME280;66031;51.224;-0.164;2023-01-28T07:39:36;102406.78;;;17.51;29.95
57452;BME280;66031;51.224;-0.164;2023-01-28T07:42:02;102408.88;;;17.10;30.29
57452;BME280;66031;51.224;-0.164;2023-01-28T07:44:27;102411.78;;;16.92;30.82
57452;BME280;66031;51.224;-0.164;2023-01-28T07:46:52;102408.30;;;17.27;30.53
57452;BME280;66031;51.224;-0.164;2023-01-28T07:49:18;102411.93;;;17.47;30.27
57452;BME280;66031;51.224;-0.164;2023-01-28T07:51:43;102408.14;;;17.64;30.47
57452;BME280;66031;51.224;-0.164;2023-01-28T07:54:09;102406.98;;;17.80;30.52
57452;BME280;66031;51.224;-0.164;2023-01-28T07:56:34;102411.66;;;17.50;30.88
57452;BME280;66031;51.224;-0.164;2023-01-28T07:58:59;102415.28;;;17.64;30.59
57452;BME280;66031;51.224;-0.164;2023-01-28T08:01:25;102415.96;;;17.48;30.69
57452;BME280;66031;51.224;-0.164;2023-01-28T08:03:50;102411.43;;;17.76;30.76
57452;BME280;66031;51.224;-0.164;2023-01-28T08:06:15;102417.14;;;17.53;30.93
57452;BME280;66031;51.224;-0.164;2023-01-28T08:08:40;102420.94;;;17.72;31.42
57452;BME280;66031;51.224;-0.164;2023-01-28T08:11:07;102423.60;;;17.83;31.23
57452;BME280;66031;51.224;-0.164;2023-01-28T08:13:31;102425.43;;;18.16;30.31
57452;BME280;66031;51.224;-0.164;2023-01-28T08:15:56;102429.31;;;18.27;29.25
57452;BME280;66031;51.224;-0.164;2023-01-28T08:18:22;102427.49;;;18.29;28.98
57452;BME280;66031;51.224;-0.164;2023-01-28T08:20:47;102420.70;;;18.31;28.89
57452;BME280;66031;51.224;-0.164;2023-01-28T08:23:14;102421.86;;;18.03;29.57
57452;BME280;66031;51.224;-0.164;2023-01-28T08:25:37;102419.89;;;17.96;29.62
57452;BME280;66031;51.224;-0.164;2023-01-28T08:28:04;102422.22;;;17.92;29.55
57452;BME280;66031;51.224;-0.164;2023-01-28T08:30:28;102424.27;;;17.95;29.00
57452;BME280;66031;51.224;-0.164;2023-01-28T08:32:55;102415.26;;;17.84;29.65
57452;BME280;66031;51.224;-0.164;2023-01-28T08:35:19;102411.52;;;17.69;30.40
57452;BME280;66031;51.224;-0.164;2023-01-28T08:37:44;102408.66;;;17.62;30.73
57452;BME280;66031;51.224;-0.164;2023-01-28T08:40:11;102411.18;;;17.58;30.88
57452;BME280;66031;51.224;-0.164;2023-01-28T08:42:35;102414.28;;;17.55;30.80
57452;BME280;66031;51.224;-0.164;2023-01-28T08:45:00;102414.63;;;17.79;30.80
57452;BME280;66031;51.224;-0.164;2023-01-28T08:47:25;102414.34;;;17.61;30.84
57452;BME280;66031;51.224;-0.164;2023-01-28T08:49:51;102415.57;;;17.54;30.98
57452;BME280;66031;51.224;-0.164;2023-01-28T08:52:16;102411.46;;;17.99;30.94
57452;BME280;66031;51.224;-0.164;2023-01-28T08:54:41;102414.00;;;17.79;30.98
57452;BME280;66031;51.224;-0.164;2023-01-28T08:57:07;102418.65;;;17.46;31.06
57452;BME280;66031;51.224;-0.164;2023-01-28T08:59:32;102416.18;;;17.68;31.11
57452;BME280;66031;51.224;-0.164;2023-01-28T09:01:57;102415.22;;;17.50;31.01
57452;BME280;66031;51.224;-0.164;2023-01-28T09:04:23;102420.03;;;17.60;31.12
57452;BME280;66031;51.224;-0.164;2023-01-28T09:06:48;102419.64;;;17.39;31.15
57452;BME280;66031;51.224;-0.164;2023-01-28T09:09:13;102425.65;;;17.25;31.29
57452;BME280;66031;51.224;-0.164;2023-01-28T09:11:39;102429.00;;;17.75;31.30
57452;BME280;66031;51.224;-0.164;2023-01-28T09:14:04;102432.31;;;17.69;31.32
57452;BME280;66031;51.224;-0.164;2023-01-28T09:16:29;102436.26;;;17.72;31.39
57452;BME280;66031;51.224;-0.164;2023-01-28T09:18:55;102437.72;;;16.98;31.64
57452;BME280;66031;51.224;-0.164;2023-01-28T09:21:20;102439.42;;;17.15;31.54
57452;BME280;66031;51.224;-0.164;2023-01-28T09:23:46;102440.47;;;17.18;31.50
57452;BME280;66031;51.224;-0.164;2023-01-28T09:26:11;102447.56;;;17.01;31.74
57452;BME280;66031;51.224;-0.164;2023-01-28T09:28:36;102452.86;;;17.34;31.63
57452;BME280;66031;51.224;-0.164;2023-01-28T09:31:02;102455.22;;;17.04;31.70
57452;BME280;66031;51.224;-0.164;2023-01-28T09:33:28;102454.49;;;17.33;31.75
57452;BME280;66031;51.224;-0.164;2023-01-28T09:35:52;102464.24;;;17.25;31.75
57452;BME280;66031;51.224;-0.164;2023-01-28T09:38:17;102462.77;;;16.78;32.09
57452;BME280;66031;51.224;-0.164;2023-01-28T09:40:43;102462.18;;;16.57;32.29
57452;BME280;66031;51.224;-0.164;2023-01-28T09:43:21;102468.68;;;16.63;32.80
57452;BME280;66031;51.224;-0.164;2023-01-28T09:45:37;102474.25;;;16.18;33.04
57452;BME280;66031;51.224;-0.164;2023-01-28T09:48:01;102479.08;;;16.42;33.12
57452;BME280;66031;51.224;-0.164;2023-01-28T09:50:30;102473.16;;;16.23;33.03
57452;BME280;66031;51.224;-0.164;2023-01-28T09:52:50;102473.40;;;16.10;32.94
57452;BME280;66031;51.224;-0.164;2023-01-28T09:55:23;102473.63;;;16.27;32.66
57452;BME280;66031;51.224;-0.164;2023-01-28T09:57:44;102475.50;;;16.72;31.94
57452;BME280;66031;51.224;-0.164;2023-01-28T10:00:12;102473.03;;;16.13;31.92
57452;BME280;66031;51.224;-0.164;2023-01-28T10:02:44;102470.34;;;16.04;32.00
57452;BME280;66031;51.224;-0.164;2023-01-28T10:05:01;102470.18;;;16.24;32.24
57452;BME280;66031;51.224;-0.164;2023-01-28T10:07:30;102468.55;;;15.92;32.43
57452;BME280;66031;51.224;-0.164;2023-01-28T10:09:53;102472.35;;;15.96;32.23
57452;BME280;66031;51.224;-0.164;2023-01-28T10:12:23;102472.91;;;16.17;32.19
57452;BME280;66031;51.224;-0.164;2023-01-28T10:14:48;102474.52;;;15.86;32.20
57452;BME280;66031;51.224;-0.164;2023-01-28T10:17:08;102474.12;;;15.54;32.26
57452;BME280;66031;51.224;-0.164;2023-01-28T10:19:30;102471.91;;;16.10;32.06
57452;BME280;66031;51.224;-0.164;2023-01-28T10:21:56;102462.93;;;16.19;32.08
57452;BME280;66031;51.224;-0.164;2023-01-28T10:24:24;102462.01;;;15.95;32.12
57452;BME280;66031;51.224;-0.164;2023-01-28T10:26:45;102465.51;;;15.66;32.19
57452;BME280;66031;51.224;-0.164;2023-01-28T10:29:15;102460.56;;;15.62;32.19
57452;BME280;66031;51.224;-0.164;2023-01-28T10:31:40;102455.21;;;15.57;32.32
57452;BME280;66031;51.224;-0.164;2023-01-28T10:34:01;102443.82;;;15.79;32.34
57452;BME280;66031;51.224;-0.164;2023-01-28T10:36:26;102438.96;;;16.03;32.38
57452;BME280;66031;51.224;-0.164;2023-01-28T10:38:52;102435.80;;;15.79;32.40
57452;BME280;66031;51.224;-0.164;2023-01-28T10:41:21;102431.24;;;16.32;32.18
57452;BME280;66031;51.224;-0.164;2023-01-28T10:43:43;102437.65;;;15.99;32.39
57452;BME280;66031;51.224;-0.164;2023-01-28T10:46:12;102437.26;;;16.29;32.29
57452;BME280;66031;51.224;-0.164;2023-01-28T10:48:37;102432.79;;;16.02;32.37
57452;BME280;66031;51.224;-0.164;2023-01-28T10:51:01;102429.53;;;15.58;33.26
57452;BME280;66031;51.224;-0.164;2023-01-28T10:53:33;102428.15;;;15.82;33.18
57452;BME280;66031;51.224;-0.164;2023-01-28T10:55:53;102421.65;;;15.54;32.67
57452;BME280;66031;51.224;-0.164;2023-01-28T10:58:18;102417.74;;;15.84;33.25
57452;BME280;66031;51.224;-0.164;2023-01-28T11:00:41;102412.06;;;15.73;32.74
57452;BME280;66031;51.224;-0.164;2023-01-28T11:03:15;102400.80;;;15.66;32.56
57452;BME280;66031;51.224;-0.164;2023-01-28T11:05:32;102400.51;;;15.71;32.79
57452;BME280;66031;51.224;-0.164;2023-01-28T11:08:05;102392.73;;;16.08;32.66
57452;BME280;66031;51.224;-0.164;2023-01-28T11:10:28;102393.92;;;16.01;32.91
57452;BME280;66031;51.224;-0.164;2023-01-28T11:12:54;102378.43;;;15.95;33.03
57452;BME280;66031;51.224;-0.164;2023-01-28T11:15:16;102359.40;;;15.83;33.07
57452;BME280;66031;51.224;-0.164;2023-01-28T11:17:45;102354.43;;;15.29;32.93
57452;BME280;66031;51.224;-0.164;2023-01-28T11:20:10;102351.40;;;15.87;32.78
57452;BME280;66031;51.224;-0.164;2023-01-28T11:22:32;102350.24;;;16.01;32.64
57452;BME280;66031;51.224;-0.164;2023-01-28T11:24:55;102345.91;;;15.95;32.92
57452;BME280;66031;51.224;-0.164;2023-01-28T11:27:26;102343.97;;;16.00;32.59
57452;BME280;66031;51.224;-0.164;2023-01-28T11:29:46;102335.43;;;15.93;32.75
57452;BME280;66031;51.224;-0.164;2023-01-28T11:32:18;102332.67;;;16.07;33.24
57452;BME280;66031;51.224;-0.164;2023-01-28T11:34:47;102332.46;;;16.01;33.16
57452;BME280;66031;51.224;-0.164;2023-01-28T11:37:09;102332.99;;;16.15;32.94
57452;BME280;66031;51.224;-0.164;2023-01-28T11:39:28;102335.33;;;15.83;32.67
57452;BME280;66031;51.224;-0.164;2023-01-28T11:41:53;102339.43;;;16.16;32.81
57452;BME280;66031;51.224;-0.164;2023-01-28T11:44:21;102337.22;;;16.24;33.05
57452;BME280;66031;51.224;-0.164;2023-01-28T11:46:54;102336.82;;;16.11;31.95
57452;BME280;66031;51.224;-0.164;2023-01-28T11:49:16;102339.69;;;16.09;32.95
57452;BME280;66031;51.224;-0.164;2023-01-28T11:51:39;102340.73;;;15.97;32.56
57452;BME280;66031;51.224;-0.164;2023-01-28T11:54:10;102347.63;;;16.07;31.95
57452;BME280;66031;51.224;-0.164;2023-01-28T11:56:35;102349.24;;;15.89;33.42
57452;BME280;66031;51.224;-0.164;2023-01-28T11:58:58;102351.86;;;16.36;32.22
57452;BME280;66031;51.224;-0.164;2023-01-28T12:01:20;102356.89;;;16.24;29.91
57452;BME280;66031;51.224;-0.164;2023-01-28T12:03:51;102353.04;;;15.95;27.30
57452;BME280;66031;51.224;-0.164;2023-01-28T12:06:17;102355.22;;;16.02;28.74
57452;BME280;66031;51.224;-0.164;2023-01-28T12:08:37;102358.02;;;15.66;29.67
57452;BME280;66031;51.224;-0.164;2023-01-28T12:11:11;102355.85;;;15.86;29.87
57452;BME280;66031;51.224;-0.164;2023-01-28T12:13:37;102359.75;;;15.61;29.89
57452;BME280;66031;51.224;-0.164;2023-01-28T12:16:04;102361.84;;;16.16;29.81
57452;BME280;66031;51.224;-0.164;2023-01-28T12:18:23;102359.88;;;15.91;29.83
57452;BME280;66031;51.224;-0.164;2023-01-28T12:20:44;102369.26;;;16.11;29.94
57452;BME280;66031;51.224;-0.164;2023-01-28T12:23:17;102375.67;;;15.83;30.03
57452;BME280;66031;51.224;-0.164;2023-01-28T12:25:40;102380.23;;;15.83;30.03
57452;BME280;66031;51.224;-0.164;2023-01-28T12:28:02;102381.28;;;15.78;30.16
57452;BME280;66031;51.224;-0.164;2023-01-28T12:30:32;102378.45;;;14.44;29.76
57452;BME280;66031;51.224;-0.164;2023-01-28T12:33:07;102385.82;;;16.49;28.98
57452;BME280;66031;51.224;-0.164;2023-01-28T12:35:26;102384.96;;;16.06;29.49